Flight Number: AVA2029 Duration: 1:30
Departure: Ottawa Intl (CYOW) at 01:00 Distance: 269.195 Nm
Arrival: Boston  Logan Intl Airport (KBOS) at 02:30 Equipment: B1900D

Weather Information
Ottawa Int'L. Ont., Canada (CYOW) 45-19N 075-40W 114M Aug 14, 2020 - 07:00 PM EDT / 2020.08.14 2300 UTC
Wind: from the ENE (060 degrees) at 7 MPH (6 KT):0
Visibility: 15 mile(s):0
Sky conditions: mostly clear Temperature: 77 F (25 C) Dew Point: 53 F (12 C) Relative Humidity: 44% Pressure (altimeter): 30.1 in. Hg (1019 hPa)
ob: CYOW 142300Z 06006KT 15SM FEW070 FEW250 25/12 A3010 RMK AC1CI1 AC TR CI TR SLP193 DENSITY ALT 1500FT cycle: 23
Sunrise: 10:07 Sunset: 00:06 (UTC)

BOSTON LOGAN INTERNATIONAL, MA, United States (KBOS) 42-22N 071-01W 54M Aug 14, 2020 - 06:54 PM EDT / 2020.08.14 2254 UTC
Wind: from the ENE (070 degrees) at 10 MPH (9 KT):0
Visibility: 10 mile(s):0
Sky conditions: mostly cloudy Temperature: 71.1 F (21.7 C) Dew Point: 61.0 F (16.1 C) Relative Humidity: 70% Pressure (altimeter): 30.03 in. Hg (1016 hPa)
ob: KBOS 142254Z 07009KT 10SM FEW040 SCT180 BKN250 22/16 A3003 RMK AO2 SLP167 T02170161 cycle: 23
Sunrise: 09:54 Sunset: 23:42 (UTC)

TAF:2020/08/14 20:13 TAF AMD KBOS 142005Z 1420/1524 08015KT P6SM SKC FM150300 03005KT P6SM SKC FM151000 03010G20KT P6SM SCT090 FM151200 03011G28KT P6SM BKN030 FM151800 04014G28KT P6SM BKN015 FM152200 05011G21KT P6SM BKN020

This route has never been flown.

Route map